Portada
METAR-TAF:

METAR-TAF

Aeroports :

Denpasar, Indonèsia

latitud: 08-44-53S, longitud: 115-10-03E, altitud: 4 m

Observació

L'informe es va fer fa 27 minuts, a les 12:00 UTC
Vent 3 kt del Est/Nord-Est
Temperatura 27°C
Humitat 100%
Pressió 1011 hPa
Visibilitat 10 km o més
Escasses núvols a una alçada de 1700 ft

METAR: WADD 251200Z 06003KT 9999 FEW017 27/27 Q1011 NOSIG

Hora: 19:27 (12:27 UTC)

Pronòstic

L'informe es va fer fa 1 hora i 27 minuts, a les 11:00 UTC
Pronòstic vàlid del 25 a les 12 UTC al 26 a les 12 UTC
Vent 5 kt amb direcció variable
Visibilitat 10 km o més
Núvols disperses a una alçada de 1600 ft
Evolucionant progressivament
l' 25 a les 23 UTC al 26 a les 01 UTC
Vent 10 kt del Oest

TAF: WADD 251100Z 2512/2612 VRB05KT 9999 SCT016 BECMG 2523/2601 27010KT

Observacions i pronòstics meteorològics de més de 4000 aeroports (METAR i TAF).

Les estacions disponibles són els punts grocs i vermells al mapa.

Posi el ratolí al punt desitjat per veure el nom de l'estació.

Feu clic per veure les observacions i els pronòstics meteorològics.

Per canviar el mapa: feu clic els botons verds amb una creu de color negre per apropar; al botó verd amb un guió per allunyar la imatge; o en les fletxes verdes per a mapes adjacents.


METAR-TAF: